Reipetown, Nevada
Current Conditions -  °F | °C
As of 5:53 PM on Saturday 20 Dec 2014 (Local Time) from KELY Reporting Station
Overcast Overcast  
Wind Chill: 34°   Ceiling: 3200
Heat Index: 34°   Visibility: 10mi
Dew Point: 31°   Wind: 3mph
Humidity: 89%   Direction: 320°NW
Pressure: 30.11"   Gusts: NA
Location:  39.2794°N, 114.987°W
Report Text: KELY 210153Z AUTO 32003KT 10SM OVC032 01/M01 A3011 RMK AO2 SLP206 T00111006
Loading
Personal Weather Stations






























Interactive Weather Map New forecast layout! Learn more

10-Day Weather Forecast

Advertisements
Track Severe Weather on mobile